KEWB/EWB METAR and TAF weather

Enter ICAO airport designator
Station Type Date Time Source
KEWB METAR 2023/01/30 09:53 UTC NOAA

KEWB 300953Z AUTO 00000KT 10SM CLR 04/02 A3013 RMK AO2 SLP201 T00390017 $


Station Type Date Time Source
KEWB Decoded METAR 2023/01/30 09:53 UTC NOAA

NEW BEDFORD REGIONAL AIRPORT, MA, United States (KEWB) 41-41N 070-58W 23M
Jan 30, 2023 - 04:53 AM EST / 2023.01.30 0953 UTC
Wind: Calm:0
Visibility: 10 mile(s):0
Sky conditions: clear
Temperature: 39.0 F (3.9 C)
Dew Point: 35.1 F (1.7 C)
Relative Humidity: 85%
Pressure (altimeter): 30.13 in. Hg (1020 hPa)
ob: KEWB 300953Z AUTO 00000KT 10SM CLR 04/02 A3013 RMK AO2 SLP201 T00390017
cycle: 10

Station Type Date Time Source
KEWB TAF UTC NOAA

Error!

Example: see airport list